Terminal Aerodrome Forecast
Issued by NWS Sterling, VA

Current Version | Previous Version | Graphics & Text | Print | Product List | Glossary On
Versions: 1 2 3 4 5 6 7 8 9 10 11 12 13 14 15 16 17 18 19 20 21
000
FTUS41 KLWX 252320
TAFIAD
TAF
KIAD 252320Z 2600/2706 20004KT P6SM FEW050 SCT200
     FM260800 VRB04KT 6SM BR FEW050 SCT200
     FM261200 28005KT P6SM FEW050 SCT200
     FM261400 32008G16KT P6SM FEW050 FEW200
     FM262300 36005KT P6SM FEW200
     FM270200 VRB03KT P6SM FEW200=

USA.gov is the U.S. government's official web portal to all federal, state and local government web resources and services.